Time;durP1;ratioP1;P1;durP2;ratioP2;P2;SDS_P1;SDS_P2;PMS_P1;PMS_P2;Temp;Humidity;BMP_temperature;BMP_pressure;BME280_temperature;BME280_humidity;BME280_pressure;Samples;Min_cycle;Max_cycle;Signal;HPM_P1;HPM_P2
2022/08/07 00:00:52;;;;;;;6.70;5.82;;;;;;;19.09;100.00;96590.84;5081535;28;20284;-80
2022/08/07 00:03:19;;;;;;;6.43;5.82;;;;;;;19.02;100.00;96582.09;5081470;28;20202;-80
2022/08/07 00:05:49;;;;;;;9.82;5.57;;;;;;;19.03;100.00;96581.03;5087200;28;20208;-79
2022/08/07 00:08:16;;;;;;;6.50;5.90;;;;;;;19.06;100.00;96581.25;5102292;28;20204;-79
2022/08/07 00:10:43;;;;;;;9.03;5.57;;;;;;;19.05;100.00;96578.81;5083806;28;20225;-79
2022/08/07 00:13:11;;;;;;;7.05;6.05;;;;;;;19.08;100.00;96578.25;5080131;28;20292;-80
2022/08/07 00:15:38;;;;;;;6.97;5.80;;;;;;;19.13;100.00;96581.00;5079578;28;20247;-80
2022/08/07 00:18:07;;;;;;;8.43;5.32;;;;;;;19.09;100.00;96580.72;5078936;28;20208;-80
2022/08/07 00:20:34;;;;;;;8.00;5.82;;;;;;;19.00;100.00;96576.91;5084364;28;20213;-79
2022/08/07 00:23:05;;;;;;;6.45;5.85;;;;;;;18.97;100.00;96582.13;5087041;28;20200;-80
2022/08/07 00:25:32;;;;;;;6.55;5.63;;;;;;;18.94;100.00;96588.97;5085460;28;20250;-79
2022/08/07 00:27:59;;;;;;;6.30;5.57;;;;;;;18.97;100.00;96571.19;5085834;28;20237;-79
2022/08/07 00:30:27;;;;;;;7.40;6.00;;;;;;;19.00;100.00;96573.34;5075025;28;20233;-79
2022/08/07 00:32:55;;;;;;;6.28;5.68;;;;;;;18.99;100.00;96569.78;5079129;28;20204;-80
2022/08/07 00:35:23;;;;;;;6.77;5.60;;;;;;;19.04;100.00;96580.75;5084151;28;20201;-80
2022/08/07 00:37:50;;;;;;;6.72;6.10;;;;;;;18.99;100.00;96558.84;5084530;28;20202;-79
2022/08/07 00:40:18;;;;;;;6.55;5.95;;;;;;;18.95;100.00;96551.50;5078805;28;20205;-80
2022/08/07 00:42:45;;;;;;;8.30;6.05;;;;;;;18.94;100.00;96558.88;5079062;28;21501;-79
2022/08/07 00:45:13;;;;;;;6.95;5.80;;;;;;;18.88;100.00;96551.78;5080052;28;20317;-79
2022/08/07 00:47:40;;;;;;;7.87;6.57;;;;;;;18.85;100.00;96550.41;5086406;28;20211;-79
2022/08/07 00:50:09;;;;;;;8.03;5.70;;;;;;;18.87;100.00;96550.16;5084034;28;20301;-80
2022/08/07 00:52:36;;;;;;;7.10;6.40;;;;;;;18.88;100.00;96540.84;5076505;28;20211;-79
2022/08/07 00:55:04;;;;;;;10.32;5.70;;;;;;;18.89;100.00;96543.28;5082454;28;20212;-79
2022/08/07 00:57:32;;;;;;;6.57;5.27;;;;;;;18.98;100.00;96539.97;5085213;28;20270;-80
2022/08/07 00:59:59;;;;;;;7.47;5.65;;;;;;;18.99;100.00;96539.69;5081421;28;20208;-79
2022/08/07 01:02:27;;;;;;;6.75;5.43;;;;;;;18.96;100.00;96525.75;5082440;28;20254;-79
2022/08/07 01:04:54;;;;;;;6.65;5.85;;;;;;;18.94;100.00;96533.44;5076204;28;20232;-80
2022/08/07 01:07:22;;;;;;;6.80;5.93;;;;;;;18.91;100.00;96523.84;5086276;28;20207;-80
2022/08/07 01:09:50;;;;;;;6.97;5.80;;;;;;;18.84;100.00;96517.84;5079452;28;20313;-79
2022/08/07 01:12:17;;;;;;;7.53;5.70;;;;;;;18.86;100.00;96532.09;5085780;28;20204;-79
2022/08/07 01:14:46;;;;;;;9.00;6.37;;;;;;;18.80;100.00;96520.31;5082955;28;20236;-79
2022/08/07 01:17:13;;;;;;;7.13;5.80;;;;;;;18.78;100.00;96524.44;5072184;28;20216;-80
2022/08/07 01:19:41;;;;;;;7.87;6.77;;;;;;;18.74;100.00;96518.69;5074876;28;20229;-80
2022/08/07 01:22:12;;;;;;;7.13;6.20;;;;;;;18.73;100.00;96517.06;5080882;28;20205;-80
2022/08/07 01:24:42;;;;;;;7.47;5.93;;;;;;;18.77;100.00;96506.41;5085852;28;20209;-79
2022/08/07 01:27:09;;;;;;;6.97;6.27;;;;;;;18.80;100.00;96511.28;5081858;28;20254;-79
2022/08/07 01:29:36;;;;;;;8.43;6.10;;;;;;;18.88;100.00;96514.28;5076987;28;20281;-80
2022/08/07 01:32:05;;;;;;;7.93;5.60;;;;;;;18.89;100.00;96515.91;5074433;28;20205;-80
2022/08/07 01:34:33;;;;;;;5.97;5.47;;;;;;;18.90;100.00;96509.34;5085328;28;20554;-79
2022/08/07 01:37:07;;;;;;;6.77;5.83;;;;;;;18.91;100.00;96501.97;5082311;28;20275;-80
2022/08/07 01:39:35;;;;;;;7.40;5.17;;;;;;;18.92;100.00;96513.72;5096585;28;20202;-79
2022/08/07 01:42:08;;;;;;;6.88;5.75;;;;;;;18.90;100.00;96512.09;5078494;28;20202;-79
2022/08/07 01:44:36;;;;;;;6.27;5.43;;;;;;;18.94;100.00;96512.34;5079833;28;20205;-80
2022/08/07 01:47:03;;;;;;;5.97;5.20;;;;;;;18.99;100.00;96515.06;5077201;28;20209;-79
2022/08/07 01:49:31;;;;;;;6.32;5.72;;;;;;;19.01;100.00;96523.00;5084157;28;20306;-79
2022/08/07 01:52:01;;;;;;;9.35;5.47;;;;;;;18.96;100.00;96520.28;5076969;28;20300;-79
2022/08/07 01:54:32;;;;;;;5.50;5.00;;;;;;;19.00;100.00;96527.66;5078183;28;20216;-80
2022/08/07 01:57:05;;;;;;;5.75;5.13;;;;;;;19.04;100.00;96516.97;5098959;28;20220;-79
2022/08/07 01:59:42;;;;;;;6.13;4.97;;;;;;;19.07;100.00;96510.94;5078143;28;20198;-80
2022/08/07 02:02:17;;;;;;;5.72;5.13;;;;;;;19.04;100.00;96511.50;5076707;28;20207;-79
2022/08/07 02:04:51;;;;;;;6.65;5.55;;;;;;;19.11;100.00;96512.03;5082023;28;20210;-80
2022/08/07 02:07:22;;;;;;;6.47;5.05;;;;;;;19.00;100.00;96510.41;5080873;28;20200;-79
2022/08/07 02:09:54;;;;;;;6.95;5.53;;;;;;;19.04;100.00;96511.50;5084005;28;20312;-79
2022/08/07 02:12:25;;;;;;;6.70;5.43;;;;;;;19.03;100.00;96509.84;5081636;28;20201;-79
2022/08/07 02:14:57;;;;;;;6.75;5.40;;;;;;;19.06;100.00;96509.28;5083899;28;20295;-79
2022/08/07 02:17:38;;;;;;;9.45;5.63;;;;;;;19.06;100.00;96504.63;5081688;28;20208;-80
2022/08/07 02:20:07;;;;;;;7.75;5.28;;;;;;;19.09;100.00;96500.53;5079051;28;20266;-79
2022/08/07 02:22:37;;;;;;;5.50;4.95;;;;;;;19.11;100.00;96501.88;5082245;28;20385;-79
2022/08/07 02:25:06;;;;;;;7.15;6.30;;;;;;;19.04;100.00;96489.59;5085003;28;20200;-79
2022/08/07 02:27:37;;;;;;;5.50;4.97;;;;;;;19.07;100.00;96489.03;5083207;28;20236;-79
2022/08/07 02:30:07;;;;;;;5.78;5.18;;;;;;;19.07;100.00;96478.91;5073660;28;20339;-80
2022/08/07 02:32:37;;;;;;;5.35;4.75;;;;;;;19.07;100.00;96489.03;5065248;28;20217;-80
2022/08/07 02:35:06;;;;;;;5.03;4.50;;;;;;;19.06;100.00;96488.22;5083448;28;20197;-80
2022/08/07 02:37:36;;;;;;;6.88;5.00;;;;;;;19.14;100.00;96484.88;5080669;28;20220;-79
2022/08/07 02:40:09;;;;;;;7.15;5.40;;;;;;;19.16;100.00;96488.16;5087098;28;20244;-79
2022/08/07 02:42:39;;;;;;;7.75;6.00;;;;;;;19.17;100.00;96483.50;5080834;28;20219;-79
2022/08/07 02:45:12;;;;;;;6.57;5.82;;;;;;;19.20;100.00;96482.97;5076099;28;20214;-80
2022/08/07 02:47:39;;;;;;;6.10;5.47;;;;;;;19.20;100.00;96482.97;5079503;28;20217;-80
2022/08/07 02:50:14;;;;;;;6.35;5.00;;;;;;;19.19;100.00;96486.78;5070031;28;20216;-79
2022/08/07 02:52:44;;;;;;;6.40;4.80;;;;;;;19.17;100.00;96486.25;5074089;28;20205;-79
2022/08/07 02:55:23;;;;;;;6.30;5.10;;;;;;;19.18;100.00;96482.41;5082362;28;20207;-79
2022/08/07 02:57:57;;;;;;;7.60;5.90;;;;;;;19.22;100.00;96489.78;5080316;28;20224;-80
2022/08/07 03:00:28;;;;;;;8.95;7.65;;;;;;;19.14;100.00;96481.34;5081036;28;20208;-79
2022/08/07 03:02:56;;;;;;;9.65;7.60;;;;;;;19.12;100.00;96487.09;5081754;28;20263;-79
2022/08/07 03:05:25;;;;;;;11.73;7.55;;;;;;;19.09;100.00;96481.38;5079890;28;20197;-79
2022/08/07 03:07:55;;;;;;;9.75;7.65;;;;;;;19.00;100.00;96481.13;5080618;28;20203;-79
2022/08/07 03:10:24;;;;;;;8.88;7.97;;;;;;;18.87;100.00;96477.09;5084133;28;20227;-79
2022/08/07 03:12:54;;;;;;;10.25;8.88;;;;;;;18.82;100.00;96471.63;5081430;28;20205;-80
2022/08/07 03:15:22;;;;;;;11.50;10.20;;;;;;;18.73;100.00;96469.75;5098773;28;20240;-79
2022/08/07 03:17:49;;;;;;;11.77;10.17;;;;;;;18.68;100.00;96464.31;5086134;28;20208;-80
2022/08/07 03:20:18;;;;;;;14.93;11.80;;;;;;;18.58;100.00;96462.41;5085194;28;20211;-79
2022/08/07 03:22:47;;;;;;;14.57;11.40;;;;;;;18.50;100.00;96468.41;5086311;28;20207;-79
2022/08/07 03:25:17;;;;;;;19.23;12.40;;;;;;;18.45;100.00;96465.72;5084741;28;20250;-79
2022/08/07 03:27:48;;;;;;;19.77;14.17;;;;;;;18.33;100.00;96462.44;5085866;28;20235;-79
2022/08/07 03:30:17;;;;;;;17.97;14.17;;;;;;;18.25;100.00;96466.56;5084328;28;20236;-79
2022/08/07 03:32:49;;;;;;;16.23;12.97;;;;;;;18.28;100.00;96476.13;5083592;28;20213;-79
2022/08/07 03:35:21;;;;;;;19.67;13.53;;;;;;;18.26;100.00;96478.31;5086868;28;20216;-79
2022/08/07 03:37:54;;;;;;;20.20;14.03;;;;;;;18.27;100.00;96477.22;5102769;28;20213;-79
2022/08/07 03:40:24;;;;;;;22.27;14.50;;;;;;;18.25;100.00;96477.50;5080123;28;20192;-80
2022/08/07 03:42:52;;;;;;;19.43;14.23;;;;;;;18.17;100.00;96466.31;5080535;28;20212;-80
2022/08/07 03:45:23;;;;;;;19.53;14.77;;;;;;;18.14;100.00;96475.84;5081420;28;20251;-80
2022/08/07 03:47:51;;;;;;;18.50;14.37;;;;;;;18.12;100.00;96478.88;5085937;28;20211;-79
2022/08/07 03:50:20;;;;;;;19.70;14.77;;;;;;;18.10;100.00;96481.06;5076522;28;20217;-79
2022/08/07 03:52:49;;;;;;;21.33;15.57;;;;;;;18.09;100.00;96482.16;5082512;28;20205;-79
2022/08/07 03:55:17;;;;;;;20.17;14.77;;;;;;;18.05;100.00;96472.84;5082614;28;20188;-79
2022/08/07 03:57:48;;;;;;;21.70;16.27;;;;;;;18.08;100.00;96472.31;5085811;28;20225;-79
2022/08/07 04:00:17;;;;;;;17.67;14.17;;;;;;;18.08;100.00;96472.31;5079690;28;20209;-79
2022/08/07 04:02:48;;;;;;;19.00;14.57;;;;;;;18.19;100.00;96475.06;5085883;28;20204;-80
2022/08/07 04:05:24;;;;;;;14.83;12.57;;;;;;;18.24;100.00;96475.03;5076221;28;20205;-79
2022/08/07 04:07:52;;;;;;;18.67;15.27;;;;;;;18.26;100.00;96461.91;5084437;28;20217;-79
2022/08/07 04:10:23;;;;;;;20.30;15.77;;;;;;;18.26;100.00;96462.72;5086801;28;20231;-80
2022/08/07 04:12:52;;;;;;;19.20;14.63;;;;;;;18.35;100.00;96463.00;5082092;28;20233;-81
2022/08/07 04:15:20;;;;;;;21.33;14.83;;;;;;;18.35;100.00;96460.25;5086889;28;20209;-81
2022/08/07 04:17:50;;;;;;;17.07;13.50;;;;;;;18.37;100.00;96461.59;5080916;28;20276;-81
2022/08/07 04:20:18;;;;;;;21.53;15.27;;;;;;;18.41;100.00;96461.88;5084422;28;20201;-82
2022/08/07 04:22:48;;;;;;;18.97;15.13;;;;;;;18.43;100.00;96470.63;5081279;28;20212;-82
2022/08/07 04:25:18;;;;;;;16.38;14.13;;;;;;;18.49;100.00;96478.53;5087487;28;20205;-82
2022/08/07 04:27:45;;;;;;;19.27;14.82;;;;;;;18.48;100.00;96471.41;5082895;28;20224;-81
2022/08/07 04:30:14;;;;;;;17.40;13.80;;;;;;;18.46;100.00;96472.78;5085146;28;20251;-82
2022/08/07 04:32:52;;;;;;;18.15;13.68;;;;;;;18.48;100.00;96476.06;5082164;28;20197;-82
2022/08/07 04:35:22;;;;;;;19.17;13.17;;;;;;;18.43;100.00;96476.09;5086160;28;20231;-81
2022/08/07 04:37:51;;;;;;;15.25;13.38;;;;;;;18.46;100.00;96484.53;5084813;28;20205;-82
2022/08/07 04:40:20;;;;;;;16.13;13.27;;;;;;;18.38;100.00;96487.84;5084103;28;20209;-81
2022/08/07 04:42:47;;;;;;;16.47;14.07;;;;;;;18.37;100.00;96491.66;5083824;28;20228;-82
2022/08/07 04:45:14;;;;;;;13.52;11.90;;;;;;;18.40;100.00;96490.31;5079762;28;20232;-80
2022/08/07 04:47:50;;;;;;;14.90;12.30;;;;;;;18.42;100.00;96494.41;5083834;28;20236;-80
2022/08/07 04:50:30;;;;;;;16.00;13.20;;;;;;;18.44;100.00;96499.63;5078966;28;20226;-80
2022/08/07 04:53:27;;;;;;;17.92;12.30;;;;;;;18.49;100.00;96500.41;5078231;28;20310;-80
2022/08/07 04:56:02;;;;;;;18.23;13.27;;;;;;;18.51;100.00;96497.41;5101063;28;20224;-80
2022/08/07 04:58:37;;;;;;;15.20;13.07;;;;;;;18.54;100.00;96505.84;5085495;28;20292;-80
2022/08/07 05:01:13;;;;;;;14.95;13.25;;;;;;;18.55;100.00;96509.41;5083001;28;20196;-80
2022/08/07 05:03:48;;;;;;;15.80;12.80;;;;;;;18.59;100.00;96513.28;5085482;28;20219;-80
2022/08/07 05:06:22;;;;;;;13.77;11.33;;;;;;;18.61;100.00;96511.09;5083583;28;20204;-80
2022/08/07 05:09:05;;;;;;;15.35;12.40;;;;;;;18.65;100.00;96520.38;5080030;28;20205;-80
2022/08/07 05:11:45;;;;;;;15.63;12.75;;;;;;;18.58;100.00;96514.38;5080200;28;20224;-80
2022/08/07 05:14:18;;;;;;;17.70;12.88;;;;;;;18.63;100.00;96514.34;5084829;28;20216;-80
2022/08/07 05:16:47;;;;;;;19.55;12.45;;;;;;;18.62;100.00;96514.66;5083233;28;20208;-80
2022/08/07 05:19:19;;;;;;;15.82;11.95;;;;;;;18.66;100.00;96521.19;5076723;28;20298;-80
2022/08/07 05:21:53;;;;;;;15.27;12.13;;;;;;;18.64;100.00;96521.47;5076228;28;20256;-80
2022/08/07 05:24:22;;;;;;;15.05;12.02;;;;;;;18.66;100.00;96535.69;5081289;28;20199;-80
2022/08/07 05:26:53;;;;;;;13.32;11.75;;;;;;;18.61;100.00;96526.69;5076700;28;20208;-80
2022/08/07 05:29:23;;;;;;;15.18;12.68;;;;;;;18.64;100.00;96532.41;5081372;28;20208;-80
2022/08/07 05:31:52;;;;;;;16.17;12.93;;;;;;;18.68;100.00;96541.69;5082052;28;20301;-80
2022/08/07 05:34:25;;;;;;;14.30;12.05;;;;;;;18.71;100.00;96529.41;5086369;28;20232;-80
2022/08/07 05:36:55;;;;;;;18.63;12.15;;;;;;;18.68;100.00;96529.94;5071750;28;20296;-80
2022/08/07 05:39:40;;;;;;;15.63;13.10;;;;;;;18.63;100.00;96536.22;5079955;28;20240;-80
2022/08/07 05:42:10;;;;;;;17.42;12.13;;;;;;;18.64;100.00;96532.41;5079694;28;20209;-80
2022/08/07 05:44:40;;;;;;;14.27;11.55;;;;;;;18.66;100.00;96524.75;5083861;28;20204;-80
2022/08/07 05:47:09;;;;;;;14.02;10.38;;;;;;;18.68;100.00;96536.22;5074972;28;20236;-80
2022/08/07 05:49:37;;;;;;;12.82;10.07;;;;;;;18.69;100.00;96520.66;5084289;28;20197;-80
2022/08/07 05:52:07;;;;;;;8.25;7.45;;;;;;;18.72;100.00;96534.56;5080082;28;20224;-80
2022/08/07 05:54:34;;;;;;;8.07;7.05;;;;;;;18.73;100.00;96532.66;5082278;28;20228;-80
2022/08/07 05:57:04;;;;;;;7.25;5.03;;;;;;;18.73;100.00;96522.53;5078764;28;20221;-80
2022/08/07 05:59:38;;;;;;;5.88;4.15;;;;;;;18.77;100.00;96534.56;5080548;28;20197;-80
2022/08/07 06:02:08;;;;;;;4.45;4.05;;;;;;;18.77;100.00;96537.31;5078572;28;20201;-80
2022/08/07 06:04:39;;;;;;;9.00;5.55;;;;;;;18.67;100.00;96534.59;5084628;28;20217;-80
2022/08/07 06:07:09;;;;;;;6.75;5.10;;;;;;;18.63;100.00;96536.22;5077772;28;20205;-80
2022/08/07 06:09:41;;;;;;;5.03;4.50;;;;;;;18.64;100.00;96537.03;5073048;28;20212;-80
2022/08/07 06:12:09;;;;;;;5.18;4.32;;;;;;;18.63;100.00;96541.69;5073288;28;20224;-80
2022/08/07 06:14:37;;;;;;;6.40;4.93;;;;;;;18.66;100.00;96524.75;5082086;28;20197;-80
2022/08/07 06:17:07;;;;;;;10.07;7.38;;;;;;;18.76;100.00;96532.94;5074394;28;20219;-80
2022/08/07 06:19:38;;;;;;;8.57;7.13;;;;;;;18.78;100.00;96530.75;5084347;28;20201;-80
2022/08/07 06:22:09;;;;;;;9.98;7.82;;;;;;;18.79;100.00;96532.38;5076926;28;20200;-80
2022/08/07 06:24:36;;;;;;;9.70;6.50;;;;;;;18.84;100.00;96534.28;5095601;28;20278;-81
2022/08/07 06:27:04;;;;;;;9.73;7.50;;;;;;;18.95;100.00;96530.41;5080379;28;20252;-80
2022/08/07 06:29:33;;;;;;;8.52;7.20;;;;;;;18.95;100.00;96530.41;5078639;28;20311;-81
2022/08/07 06:32:01;;;;;;;12.00;8.30;;;;;;;19.01;100.00;96533.94;5073998;28;20355;-81
2022/08/07 06:34:28;;;;;;;9.52;8.35;;;;;;;19.05;100.00;96541.34;5083106;28;20208;-80
2022/08/07 06:36:55;;;;;;;9.25;8.10;;;;;;;19.06;100.00;96531.19;5084529;28;20287;-81
2022/08/07 06:39:31;;;;;;;12.50;9.77;;;;;;;19.15;100.00;96526.75;5073652;28;20208;-80
2022/08/07 06:42:06;;;;;;;13.48;10.18;;;;;;;19.19;100.00;96527.84;5082903;28;20202;-80
2022/08/07 06:44:53;;;;;;;15.35;11.27;;;;;;;19.18;100.00;96526.22;5076468;28;20208;-80
2022/08/07 06:47:21;;;;;;;12.23;10.35;;;;;;;19.22;100.00;96538.25;5073834;28;20232;-80
2022/08/07 06:49:50;;;;;;;13.02;10.48;;;;;;;19.25;100.00;96526.72;5084058;28;20216;-81
2022/08/07 06:52:19;;;;;;;12.10;10.02;;;;;;;19.28;100.00;96526.16;5080485;28;20240;-81
2022/08/07 06:54:50;;;;;;;11.93;10.52;;;;;;;19.26;100.00;96526.44;5082587;28;20219;-80
2022/08/07 06:57:20;;;;;;;12.05;10.52;;;;;;;19.30;100.00;96531.38;5074367;28;20235;-81
2022/08/07 06:59:50;;;;;;;12.77;10.80;;;;;;;19.33;100.00;96520.66;5078975;28;20228;-80
2022/08/07 07:02:21;;;;;;;11.73;10.52;;;;;;;19.36;100.00;96530.25;5083267;28;20197;-80
2022/08/07 07:04:48;;;;;;;12.15;10.43;;;;;;;19.31;100.00;96533.81;5082110;28;20225;-81
2022/08/07 07:07:15;;;;;;;13.52;10.80;;;;;;;19.27;100.00;96533.56;5080708;28;20229;-81
2022/08/07 07:09:46;;;;;;;12.98;10.38;;;;;;;19.22;100.00;96532.78;5081318;28;20193;-80
2022/08/07 07:12:31;;;;;;;13.73;11.10;;;;;;;19.21;100.00;96528.41;5081230;28;20231;-80
2022/08/07 07:15:04;;;;;;;11.52;9.93;;;;;;;19.27;100.00;96535.47;5078027;28;20221;-80
2022/08/07 07:17:39;;;;;;;10.35;8.85;;;;;;;19.33;100.00;96531.59;5077169;28;20201;-80
2022/08/07 07:20:11;;;;;;;10.18;9.18;;;;;;;19.30;100.00;96537.66;5083805;28;20207;-80
2022/08/07 07:22:40;;;;;;;11.85;9.40;;;;;;;19.23;100.00;96526.19;5103083;28;20216;-80
2022/08/07 07:25:09;;;;;;;10.23;9.13;;;;;;;19.29;100.00;96530.56;5078271;28;20283;-81
2022/08/07 07:27:47;;;;;;;9.57;8.68;;;;;;;19.34;100.00;96530.50;5083070;28;20256;-80
2022/08/07 07:30:14;;;;;;;9.30;8.40;;;;;;;19.33;100.00;96520.66;5075005;28;20209;-77
2022/08/07 07:32:44;;;;;;;9.85;8.70;;;;;;;19.35;100.00;96532.16;5076250;28;20288;-78
2022/08/07 07:35:12;;;;;;;9.27;7.90;;;;;;;19.31;100.00;96517.38;5080799;28;20208;-81
2022/08/07 07:37:42;;;;;;;9.93;8.93;;;;;;;19.36;100.00;96517.38;5085269;28;20228;-80
2022/08/07 07:40:15;;;;;;;8.88;7.97;;;;;;;19.43;100.00;96528.81;5081615;28;20214;-80
2022/08/07 07:42:46;;;;;;;8.73;7.82;;;;;;;19.49;100.00;96519.50;5081635;28;20201;-80
2022/08/07 07:45:16;;;;;;;8.27;7.47;;;;;;;19.55;100.00;96528.53;5079409;28;20212;-80
2022/08/07 07:47:44;;;;;;;8.65;7.80;;;;;;;19.58;100.00;96517.81;5071379;28;20197;-79
2022/08/07 07:50:14;;;;;;;8.65;7.75;;;;;;;19.62;100.00;96518.91;5082833;28;20201;-79
2022/08/07 07:52:43;;;;;;;8.38;7.47;;;;;;;19.72;100.00;96517.19;5089629;28;20225;-80
2022/08/07 07:55:10;;;;;;;8.02;7.22;;;;;;;19.77;100.00;96522.63;5079587;28;20303;-80
2022/08/07 07:57:39;;;;;;;7.95;7.15;;;;;;;19.78;100.00;96519.63;5079042;28;20247;-80
2022/08/07 08:00:10;;;;;;;8.13;7.25;;;;;;;19.68;100.00;96514.19;5080964;28;20210;-80
2022/08/07 08:02:41;;;;;;;8.10;7.07;;;;;;;19.64;100.00;96516.69;5081766;28;20224;-79
2022/08/07 08:05:11;;;;;;;7.07;6.38;;;;;;;19.71;100.00;96518.28;5083432;28;20219;-80
2022/08/07 08:07:39;;;;;;;9.15;7.50;;;;;;;19.73;100.00;96518.84;5088356;28;20204;-80
2022/08/07 08:10:08;;;;;;;8.13;7.32;;;;;;;19.69;100.00;96518.56;5080418;28;20205;-79
2022/08/07 08:12:36;;;;;;;7.50;6.80;;;;;;;19.78;100.00;96516.88;5076296;28;20221;-79
2022/08/07 08:15:03;;;;;;;7.63;6.88;;;;;;;19.86;100.00;96519.00;5080308;28;20212;-80
2022/08/07 08:17:35;;;;;;;7.38;6.60;;;;;;;19.89;100.00;96523.94;5080048;28;20212;-80
2022/08/07 08:20:07;;;;;;;7.13;6.43;;;;;;;19.96;100.00;96523.59;5082328;28;20261;-80
2022/08/07 08:28:15;;;;;;;8.30;7.50;;;;;;;20.16;100.00;96528.13;5081872;28;20232;-79
2022/08/07 08:30:44;;;;;;;9.63;7.43;;;;;;;20.19;100.00;96525.59;5081716;28;20227;-80
2022/08/07 08:33:17;;;;;;;8.38;7.20;;;;;;;20.18;100.00;96523.97;5090163;28;20209;-80
2022/08/07 08:35:48;;;;;;;8.63;7.30;;;;;;;20.31;100.00;96527.97;5078511;28;20205;-80
2022/08/07 08:38:17;;;;;;;8.82;7.82;;;;;;;20.33;100.00;96528.50;5086710;28;20282;-80
2022/08/07 08:40:51;;;;;;;8.68;7.78;;;;;;;20.34;100.00;96527.41;5085679;28;20196;-79
2022/08/07 08:43:24;;;;;;;8.98;8.07;;;;;;;20.33;100.00;96523.81;5080947;28;20217;-80
2022/08/07 08:45:57;;;;;;;8.80;7.90;;;;;;;20.51;100.00;96524.25;5079462;28;20215;-80
2022/08/07 08:48:35;;;;;;;8.32;7.45;;;;;;;20.55;100.00;96530.78;5086098;28;20212;-80
2022/08/07 08:51:08;;;;;;;8.52;7.72;;;;;;;20.57;100.00;96534.06;5081404;28;20200;-80
2022/08/07 08:53:44;;;;;;;8.70;7.80;;;;;;;20.66;100.00;96540.56;5098849;28;20333;-80
2022/08/07 08:56:15;;;;;;;8.68;7.22;;;;;;;20.81;100.00;96539.59;5083637;28;20316;-79
2022/08/07 08:58:49;;;;;;;9.07;7.43;;;;;;;20.72;100.00;96539.41;5080297;28;20216;-79
2022/08/07 09:01:22;;;;;;;7.38;6.68;;;;;;;20.77;100.00;96533.84;5076709;28;20201;-80
2022/08/07 09:03:58;;;;;;;8.43;7.63;;;;;;;20.80;100.00;96536.03;5076407;28;20295;-80
2022/08/07 09:06:45;;;;;;;10.98;8.60;;;;;;;20.87;100.00;96541.97;5082602;28;20299;-80
2022/08/07 09:09:35;;;;;;;8.25;7.45;;;;;;;20.82;100.00;96539.31;5085372;28;20273;-79
2022/08/07 09:12:12;;;;;;;9.30;7.53;;;;;;;20.86;100.00;96543.09;5074215;28;20313;-79
2022/08/07 09:14:48;;;;;;;8.20;7.40;;;;;;;20.88;100.00;96542.81;5086609;28;20193;-80
2022/08/07 09:17:29;;;;;;;9.07;8.20;;;;;;;20.77;100.00;96544.84;5086184;28;20212;-80
2022/08/07 09:20:05;;;;;;;8.27;7.45;;;;;;;20.76;100.00;96554.16;5074819;28;20275;-79
2022/08/07 09:22:47;;;;;;;8.13;7.32;;;;;;;20.75;100.00;96549.81;5073792;28;20216;-80
2022/08/07 09:25:23;;;;;;;8.32;7.32;;;;;;;20.80;100.00;96544.25;5071925;28;20237;-80
2022/08/07 09:27:57;;;;;;;8.57;7.78;;;;;;;20.82;100.00;96542.06;5075806;28;20239;-79
2022/08/07 09:30:29;;;;;;;8.18;7.40;;;;;;;20.91;100.00;96547.72;5083209;28;20268;-79
2022/08/07 09:33:04;;;;;;;7.93;7.13;;;;;;;20.90;100.00;96555.13;5069074;28;20326;-80
2022/08/07 09:35:46;;;;;;;8.80;7.82;;;;;;;20.93;100.00;96560.03;5080062;28;20235;-79
2022/08/07 09:38:19;;;;;;;8.63;7.50;;;;;;;20.89;100.00;96558.97;5080024;28;20197;-80
2022/08/07 09:41:08;;;;;;;8.55;7.65;;;;;;;20.86;100.00;96553.25;5072112;28;20213;-80
2022/08/07 09:43:49;;;;;;;8.85;7.72;;;;;;;20.86;100.00;96554.06;5078214;28;20242;-79
2022/08/07 09:46:29;;;;;;;8.20;7.38;;;;;;;20.91;100.00;96556.78;5074758;28;20304;-79
2022/08/07 09:49:06;;;;;;;8.88;7.80;;;;;;;20.88;100.00;96551.03;5078850;28;20205;-79
2022/08/07 09:51:50;;;;;;;8.32;7.53;;;;;;;20.92;100.00;96552.94;5084782;28;20286;-79
2022/08/07 09:54:23;;;;;;;8.02;7.20;;;;;;;21.06;100.00;96548.38;5080668;28;20213;-79
2022/08/07 09:57:19;;;;;;;8.50;7.60;;;;;;;21.11;100.00;96544.72;5076643;28;20261;-80
2022/08/07 10:00:01;;;;;;;9.00;8.10;;;;;;;21.09;100.00;96545.03;5078173;28;20213;-80
2022/08/07 10:02:59;;;;;;;8.68;7.88;;;;;;;21.11;100.00;96551.03;5084061;28;20205;-79
2022/08/07 10:05:35;;;;;;;7.97;7.25;;;;;;;21.13;100.00;96548.81;5082872;28;20288;-80
2022/08/07 10:08:33;;;;;;;9.30;7.80;;;;;;;21.22;100.00;96553.69;5069759;28;20197;-80
2022/08/07 10:11:08;;;;;;;8.45;7.65;;;;;;;21.31;100.00;96550.03;5080220;28;20205;-80
2022/08/07 10:13:50;;;;;;;8.25;7.50;;;;;;;21.42;100.00;96551.53;5081301;28;20300;-80
2022/08/07 10:16:41;;;;;;;8.90;7.97;;;;;;;21.47;100.00;96551.47;5085542;28;20209;-79
2022/08/07 10:19:28;;;;;;;8.45;7.55;;;;;;;21.38;100.00;96552.41;5082565;28;20215;-80
2022/08/07 10:22:08;;;;;;;8.65;7.82;;;;;;;21.27;100.00;96546.22;5082846;28;20282;-80
2022/08/07 10:24:50;;;;;;;8.50;7.70;;;;;;;21.36;100.00;96547.19;5078879;28;20200;-80
2022/08/07 10:27:31;;;;;;;9.18;8.27;;;;;;;21.32;100.00;96548.09;5080287;28;20229;-80
2022/08/07 10:30:08;;;;;;;9.40;8.40;;;;;;;21.34;100.00;96554.13;5071438;28;20205;-80
2022/08/07 10:32:56;;;;;;;8.85;7.95;;;;;;;21.32;100.00;96548.91;5087172;28;20216;-80
2022/08/07 10:35:29;;;;;;;8.55;7.75;;;;;;;21.27;100.00;96543.47;5083590;28;20208;-80
2022/08/07 10:38:13;;;;;;;9.68;8.70;;;;;;;21.32;100.00;96551.66;5080870;28;20211;-80
2022/08/07 10:40:47;;;;;;;9.13;7.72;;;;;;;21.16;100.00;96536.44;5079419;28;20288;-80
2022/08/07 10:43:20;;;;;;;8.18;7.38;;;;;;;21.35;100.00;96540.06;5084209;28;20192;-80
2022/08/07 10:45:50;;;;;;;8.57;7.30;;;;;;;21.47;100.00;96554.22;5078050;28;20227;-80
2022/08/07 10:48:35;;;;;;;8.95;8.05;;;;;;;21.49;100.00;96541.00;5074482;28;20201;-80
2022/08/07 10:51:09;;;;;;;9.27;8.20;;;;;;;21.61;100.00;96554.28;5082536;28;20302;-80
2022/08/07 10:53:43;;;;;;;8.88;8.07;;;;;;;21.58;100.00;96543.91;5073948;28;20307;-80
2022/08/07 10:56:31;;;;;;;9.23;8.32;;;;;;;21.60;100.00;96549.94;5079304;28;20273;-84
2022/08/07 10:59:09;;;;;;;9.07;8.27;;;;;;;21.60;100.00;96543.63;5087117;28;20208;-83
2022/08/07 11:01:45;;;;;;;9.25;8.25;;;;;;;21.45;100.00;96536.38;5077542;28;20250;-82
2022/08/07 11:04:24;;;;;;;8.23;7.43;;;;;;;21.43;100.00;96533.13;5085140;28;20228;-83
2022/08/07 11:07:01;;;;;;;9.20;8.38;;;;;;;21.45;100.00;96533.63;5077759;28;20209;-81
2022/08/07 11:09:31;;;;;;;9.45;8.50;;;;;;;21.57;100.00;96546.94;5091322;28;20199;-83
2022/08/07 11:12:04;;;;;;;10.10;8.15;;;;;;;21.64;100.00;96553.72;5079018;28;20268;-83
2022/08/07 11:14:39;;;;;;;9.52;8.43;;;;;;;21.68;100.00;96553.94;5082352;28;20232;-83
2022/08/07 11:17:13;;;;;;;9.57;8.57;;;;;;;21.71;100.00;96545.09;5089699;28;20201;-83
2022/08/07 11:19:49;;;;;;;8.85;8.05;;;;;;;21.65;100.00;96538.03;5091964;28;20209;-83
2022/08/07 11:22:25;;;;;;;9.25;8.35;;;;;;;21.79;100.00;96545.25;5073228;28;20209;-83
2022/08/07 11:25:03;;;;;;;11.02;8.32;;;;;;;21.81;100.00;96543.03;5077982;28;20208;-83
2022/08/07 11:27:40;;;;;;;8.43;7.65;;;;;;;21.99;100.00;96544.16;5082133;28;20233;-84
2022/08/07 11:30:14;;;;;;;8.73;7.90;;;;;;;21.98;100.00;96541.72;5082324;28;20247;-83
2022/08/07 11:32:51;;;;;;;8.48;7.63;;;;;;;22.14;100.00;96538.41;5083531;28;20309;-84
2022/08/07 11:35:21;;;;;;;9.77;8.77;;;;;;;22.17;100.00;96537.00;5076451;28;20241;-83
2022/08/07 11:38:05;;;;;;;11.02;8.40;;;;;;;22.19;100.00;96537.53;5076550;28;20209;-83
2022/08/07 11:40:50;;;;;;;8.90;8.00;;;;;;;22.32;100.00;96542.25;5082471;28;20204;-83
2022/08/07 11:43:23;;;;;;;9.05;8.10;;;;;;;22.36;100.00;96543.31;5078064;28;20222;-83
2022/08/07 11:46:31;;;;;;;9.50;8.15;;;;;;;22.18;100.00;96557.91;5078803;28;20205;-83
2022/08/07 11:49:17;;;;;;;8.32;7.53;;;;;;;22.08;100.00;96542.38;5014944;28;20207;-83